createdAt,value
2023-03-11T00:01:00.868Z,98397.97
2023-03-11T00:04:09.221Z,98400.50
2023-03-11T00:07:21.142Z,98403.56
2023-03-11T00:10:49.251Z,98407.72
2023-03-11T00:14:17.540Z,98409.92
2023-03-11T00:17:26.347Z,98406.21
2023-03-11T00:20:15.959Z,98402.22
2023-03-11T00:23:44.039Z,98406.41
2023-03-11T00:27:12.047Z,98408.50
2023-03-11T00:30:40.263Z,98408.38
2023-03-11T00:34:07.974Z,98402.19
2023-03-11T00:37:35.658Z,98397.97
2023-03-11T00:40:44.664Z,98390.53
2023-03-11T00:44:12.739Z,98384.86
2023-03-11T00:47:40.791Z,98392.05
2023-03-11T00:51:08.434Z,98396.86
2023-03-11T00:54:16.308Z,98389.18
2023-03-11T00:57:44.380Z,98387.77
2023-03-11T01:01:12.582Z,98387.93
2023-03-11T01:04:21.566Z,98379.04
2023-03-11T01:07:49.306Z,98370.85
2023-03-11T01:11:17.126Z,98372.30
2023-03-11T01:14:45.395Z,98372.64
2023-03-11T01:18:13.402Z,98367.91
2023-03-11T01:21:41.048Z,98369.88
2023-03-11T01:25:09.006Z,98367.08
2023-03-11T01:28:37.341Z,98364.34
2023-03-11T01:32:05.435Z,98363.83
2023-03-11T01:35:13.817Z,98364.33
2023-03-11T01:38:41.962Z,98374.70
2023-03-11T01:42:10.225Z,98381.55
2023-03-11T01:45:38.411Z,98387.67
2023-03-11T01:49:06.517Z,98389.15
2023-03-11T01:52:34.533Z,98394.44
2023-03-11T01:56:02.801Z,98401.47
2023-03-11T01:59:26.523Z,98407.96
2023-03-11T02:02:54.450Z,98411.48
2023-03-11T02:06:22.642Z,98422.71
2023-03-11T02:09:50.854Z,98428.61
2023-03-11T02:13:19.020Z,98422.48
2023-03-11T02:16:46.768Z,98422.93
2023-03-11T02:19:57.105Z,98427.44
2023-03-11T02:23:24.858Z,98432.95
2023-03-11T02:26:33.814Z,98430.33
2023-03-11T02:30:01.745Z,98440.05
2023-03-11T02:33:07.928Z,98439.67
2023-03-11T02:43:43.058Z,98441.23
2023-03-11T02:47:11.608Z,98443.98
2023-03-11T02:50:39.613Z,98435.03
2023-03-11T02:54:04.373Z,98443.55
2023-03-11T02:57:32.703Z,98439.14
2023-03-11T03:01:01.089Z,98438.14
2023-03-11T03:03:50.331Z,98437.86
2023-03-11T03:07:18.261Z,98437.84
2023-03-11T03:10:46.169Z,98441.20
2023-03-11T03:14:13.876Z,98449.23
2023-03-11T03:17:42.435Z,98452.33
2023-03-11T03:21:10.169Z,98450.16
2023-03-11T03:24:38.205Z,98455.17
2023-03-11T03:27:46.350Z,98465.81
2023-03-11T03:31:14.355Z,98467.05
2023-03-11T03:34:42.321Z,98467.92
2023-03-11T03:38:10.413Z,98467.05
2023-03-11T03:41:26.049Z,98472.89
2023-03-11T03:44:54.109Z,98474.31
2023-03-11T03:48:11.056Z,98478.22
2023-03-11T03:51:19.330Z,98480.15
2023-03-11T03:54:50.951Z,98478.63
2023-03-11T03:58:18.891Z,98480.96
2023-03-11T04:01:10.277Z,98484.30
2023-03-11T04:04:38.064Z,98485.32
2023-03-11T04:08:06.147Z,98496.81
2023-03-11T04:11:22.115Z,98499.13
2023-03-11T04:14:50.312Z,98501.60
2023-03-11T04:18:18.807Z,98503.31
2023-03-11T04:21:34.602Z,98512.36
2023-03-11T04:25:04.190Z,98514.17
2023-03-11T04:28:32.094Z,98516.38
2023-03-11T04:31:41.841Z,98517.58
2023-03-11T04:34:51.010Z,98521.31
2023-03-11T04:38:00.580Z,98519.92
2023-03-11T04:41:16.433Z,98513.30
2023-03-11T04:44:25.387Z,98500.31
2023-03-11T04:47:33.350Z,98493.95
2023-03-11T04:51:01.944Z,98505.23
2023-03-11T04:54:29.814Z,98519.69
2023-03-11T04:57:57.787Z,98536.73
2023-03-11T05:01:08.047Z,98540.46
2023-03-11T05:04:36.031Z,98554.49
2023-03-11T05:07:32.728Z,98555.14
2023-03-11T05:11:00.867Z,98550.84
2023-03-11T05:14:28.735Z,98547.73
2023-03-11T05:17:57.044Z,98542.55
2023-03-11T05:21:25.163Z,98535.45
2023-03-11T05:24:22.235Z,98535.54
2023-03-11T05:27:50.019Z,98533.80
2023-03-11T05:31:18.291Z,98533.36
2023-03-11T05:34:46.580Z,98535.50
2023-03-11T05:38:10.656Z,98534.55
2023-03-11T05:41:38.642Z,98538.09
2023-03-11T05:45:06.754Z,98536.64
2023-03-11T05:48:16.460Z,98541.42
2023-03-11T05:51:46.766Z,98547.29
2023-03-11T05:55:02.965Z,98556.85
2023-03-11T05:58:32.327Z,98565.38
2023-03-11T06:02:00.153Z,98572.73
2023-03-11T06:05:28.453Z,98569.81
2023-03-11T06:08:56.184Z,98578.39
2023-03-11T06:12:24.629Z,98584.10
2023-03-11T06:16:08.112Z,98589.91
2023-03-11T06:19:16.213Z,98590.04
2023-03-11T06:22:44.500Z,98592.25
2023-03-11T06:26:12.599Z,98593.05
2023-03-11T06:29:40.957Z,98596.75
2023-03-11T06:33:01.380Z,98611.75
2023-03-11T06:36:29.229Z,98623.61
2023-03-11T06:39:57.408Z,98627.66
2023-03-11T06:43:22.202Z,98633.61
2023-03-11T06:46:30.758Z,98638.50
2023-03-11T06:49:39.096Z,98634.27
2023-03-11T06:52:54.652Z,98635.10
2023-03-11T06:56:22.351Z,98637.27
2023-03-11T06:59:50.465Z,98644.94
2023-03-11T07:02:59.550Z,98653.17
2023-03-11T07:06:08.836Z,98671.29
2023-03-11T07:09:16.956Z,98689.02
2023-03-11T07:12:42.753Z,98688.06
2023-03-11T07:16:11.145Z,98694.13
2023-03-11T07:19:39.439Z,98707.65
2023-03-11T07:23:07.579Z,98708.95
2023-03-11T07:26:35.452Z,98726.27
2023-03-11T07:30:03.579Z,98739.57
2023-03-11T07:33:34.168Z,98751.86
2023-03-11T07:36:59.401Z,98761.60
2023-03-11T07:40:08.182Z,98778.81
2023-03-11T07:43:36.912Z,98789.60
2023-03-11T07:47:05.190Z,98800.19
2023-03-11T07:50:15.497Z,98802.21
2023-03-11T07:53:44.620Z,98815.62
2023-03-11T07:57:12.766Z,98830.59
2023-03-11T08:00:40.719Z,98827.02
2023-03-11T08:04:08.684Z,98839.45
2023-03-11T08:07:36.774Z,98833.97
2023-03-11T08:10:45.790Z,98828.89
2023-03-11T08:14:14.395Z,98829.77
2023-03-11T08:17:42.593Z,98823.51
2023-03-11T08:21:10.586Z,98839.29
2023-03-11T08:24:38.526Z,98837.06
2023-03-11T08:28:06.921Z,98844.54
2023-03-11T08:31:34.946Z,98854.86
2023-03-11T08:35:02.680Z,98862.95
2023-03-11T08:38:30.821Z,98871.73
2023-03-11T08:41:58.888Z,98891.92
2023-03-11T08:45:27.029Z,98900.78
2023-03-11T08:48:54.892Z,98911.75
2023-03-11T08:52:22.913Z,98914.90
2023-03-11T08:55:50.784Z,98906.08
2023-03-11T08:59:20.032Z,98918.27
2023-03-11T09:02:28.364Z,98923.09
2023-03-11T09:05:56.676Z,98921.02
2023-03-11T09:09:24.634Z,98936.27
2023-03-11T09:12:48.866Z,98931.53
2023-03-11T09:16:17.313Z,98941.84
2023-03-11T09:19:47.663Z,98936.48
2023-03-11T09:23:18.584Z,98941.77
2023-03-11T09:30:25.383Z,98939.17
2023-03-11T09:33:49.535Z,98949.67
2023-03-11T09:40:46.566Z,98954.01
2023-03-11T09:47:38.305Z,98926.16
2023-03-11T09:54:26.458Z,98912.58
2023-03-11T10:01:16.716Z,98956.86
2023-03-11T10:04:45.884Z,98948.30
2023-03-11T10:08:14.042Z,98936.01
2023-03-11T10:11:23.824Z,98948.00
2023-03-11T10:14:51.951Z,98942.40
2023-03-11T10:18:20.334Z,98959.84
2023-03-11T10:21:29.611Z,98947.11
2023-03-11T10:24:57.430Z,98942.80
2023-03-11T10:28:25.543Z,98938.08
2023-03-11T10:31:34.193Z,98939.15
2023-03-11T10:35:02.325Z,98957.63
2023-03-11T10:38:11.657Z,98967.92
2023-03-11T10:41:40.590Z,98967.79
2023-03-11T10:45:09.237Z,98970.70
2023-03-11T10:48:37.280Z,98960.80
2023-03-11T10:52:05.371Z,98977.25
2023-03-11T10:55:33.418Z,98973.88
2023-03-11T10:59:01.220Z,98978.26
2023-03-11T11:02:29.091Z,98985.59
2023-03-11T11:05:53.500Z,98988.05
2023-03-11T11:12:53.459Z,98998.93
2023-03-11T11:16:02.313Z,98987.96
2023-03-11T11:19:30.834Z,98982.61
2023-03-11T11:22:58.982Z,99005.45
2023-03-11T11:26:27.080Z,99010.34
2023-03-11T11:33:23.884Z,98990.16
2023-03-11T11:36:51.682Z,98996.98
2023-03-11T11:40:16.122Z,99003.86
2023-03-11T11:47:10.787Z,98998.77
2023-03-11T11:53:57.189Z,98987.45
2023-03-11T11:57:25.384Z,98990.91
2023-03-11T12:00:50.096Z,99003.95
2023-03-11T12:04:18.156Z,99005.31
2023-03-11T12:07:46.308Z,99001.74
2023-03-11T12:11:14.489Z,99010.73
2023-03-11T12:14:42.577Z,99003.44
2023-03-11T12:18:10.806Z,99003.27
2023-03-11T12:21:38.967Z,99010.54
2023-03-11T12:25:08.190Z,98999.28
2023-03-11T12:28:34.120Z,99007.36
2023-03-11T12:32:01.906Z,99017.48
2023-03-11T12:35:30.036Z,99023.05
2023-03-11T12:38:57.893Z,99010.15
2023-03-11T12:42:25.902Z,99019.73
2023-03-11T12:45:53.752Z,99036.39
2023-03-11T12:49:21.714Z,99035.73
2023-03-11T12:52:31.828Z,99025.23
2023-03-11T12:55:40.671Z,99011.30
2023-03-11T12:59:08.842Z,99014.64
2023-03-11T13:02:37.106Z,99022.45
2023-03-11T13:09:31.526Z,99031.07
2023-03-11T13:19:58.839Z,99036.46
2023-03-11T13:26:55.303Z,99050.08
2023-03-11T13:30:23.147Z,99053.33
2023-03-11T13:33:47.742Z,99054.79
2023-03-11T13:40:32.232Z,99051.23
2023-03-11T13:47:43.528Z,99046.73
2023-03-11T13:51:20.845Z,99049.02
2023-03-11T13:58:34.830Z,99041.15
2023-03-11T14:02:05.708Z,99052.00
2023-03-11T14:05:33.680Z,99052.77
2023-03-11T14:09:01.551Z,99052.54
2023-03-11T14:12:29.687Z,99057.73
2023-03-11T14:15:41.806Z,99057.09
2023-03-11T14:18:58.984Z,99052.70
2023-03-11T14:22:27.146Z,99066.82
2023-03-11T14:25:54.838Z,99068.14
2023-03-11T14:29:22.966Z,99066.95
2023-03-11T14:32:51.208Z,99073.94
2023-03-11T14:36:18.976Z,99071.07
2023-03-11T14:39:51.023Z,99066.50
2023-03-11T14:43:14.749Z,99074.05
2023-03-11T14:46:45.214Z,99073.98
2023-03-11T14:50:10.777Z,99074.85
2023-03-11T14:53:38.632Z,99080.80
2023-03-11T14:57:06.746Z,99076.77
2023-03-11T15:00:35.367Z,99076.33
2023-03-11T15:04:03.544Z,99080.63
2023-03-11T15:07:33.408Z,99076.38
2023-03-11T15:11:01.418Z,99079.55
2023-03-11T15:14:27.893Z,99085.69
2023-03-11T15:17:42.887Z,99081.91
2023-03-11T15:21:04.646Z,99087.63
2023-03-11T15:24:32.537Z,99098.34
2023-03-11T15:27:41.309Z,99100.30
2023-03-11T15:31:09.513Z,99110.38
2023-03-11T15:34:18.109Z,99112.35
2023-03-11T15:37:46.310Z,99118.71
2023-03-11T15:41:14.270Z,99119.52
2023-03-11T15:44:38.359Z,99123.00
2023-03-11T15:47:47.463Z,99130.70
2023-03-11T15:51:15.588Z,99139.98
2023-03-11T15:54:54.502Z,99151.91
2023-03-11T15:58:11.701Z,99165.60
2023-03-11T16:01:22.305Z,99174.38
2023-03-11T16:04:50.362Z,99178.83
2023-03-11T16:08:18.445Z,99185.38
2023-03-11T16:11:46.751Z,99188.92
2023-03-11T16:15:15.253Z,99200.23
2023-03-11T16:18:43.383Z,99205.08
2023-03-11T16:22:11.472Z,99208.05
2023-03-11T16:25:39.565Z,99212.45
2023-03-11T16:28:33.563Z,99223.48
2023-03-11T16:32:01.723Z,99230.19
2023-03-11T16:35:29.995Z,99234.01
2023-03-11T16:38:58.227Z,99242.81
2023-03-11T16:42:26.818Z,99244.06
2023-03-11T16:45:54.866Z,99246.54
2023-03-11T16:49:22.540Z,99243.81
2023-03-11T16:52:50.759Z,99245.59
2023-03-11T16:56:18.687Z,99258.54
2023-03-11T16:59:46.613Z,99271.71
2023-03-11T17:03:14.401Z,99283.35
2023-03-11T17:10:02.676Z,99301.40
2023-03-11T17:13:31.057Z,99313.45
2023-03-11T17:16:59.368Z,99312.36
2023-03-11T17:20:27.046Z,99323.88
2023-03-11T17:27:17.016Z,99343.94
2023-03-11T17:34:24.081Z,99364.04
2023-03-11T17:37:29.847Z,99368.59
2023-03-11T17:40:54.721Z,99378.03
2023-03-11T17:47:56.390Z,99393.55
2023-03-11T17:51:05.234Z,99399.67
2023-03-11T17:54:35.838Z,99406.20
2023-03-11T18:01:44.447Z,99415.30
2023-03-11T18:04:53.492Z,99416.37
2023-03-11T18:08:22.689Z,99429.91
2023-03-11T18:11:50.594Z,99439.41
2023-03-11T18:15:18.565Z,99443.37
2023-03-11T18:18:46.339Z,99450.85
2023-03-11T18:22:13.993Z,99450.52
2023-03-11T18:25:24.225Z,99455.61
2023-03-11T18:28:52.735Z,99466.42
2023-03-11T18:32:20.906Z,99470.37
2023-03-11T18:35:49.152Z,99476.64
2023-03-11T18:38:57.765Z,99474.33
2023-03-11T18:42:25.923Z,99479.88
2023-03-11T18:45:54.082Z,99479.13
2023-03-11T18:49:03.049Z,99480.78
2023-03-11T18:52:31.274Z,99486.68
2023-03-11T18:55:59.518Z,99496.20
2023-03-11T18:59:27.670Z,99498.99
2023-03-11T19:02:56.286Z,99499.02
2023-03-11T19:06:24.250Z,99506.58
2023-03-11T19:13:18.007Z,99528.69
2023-03-11T19:16:46.424Z,99530.15
2023-03-11T19:20:14.550Z,99533.61
2023-03-11T19:27:37.659Z,99541.80
2023-03-11T19:31:09.147Z,99546.58
2023-03-11T19:34:36.987Z,99558.67
2023-03-11T19:38:01.440Z,99567.84
2023-03-11T19:44:58.195Z,99581.43
2023-03-11T19:51:51.695Z,99585.44
2023-03-11T19:58:54.087Z,99596.92
2023-03-11T20:02:22.220Z,99610.88
2023-03-11T20:05:50.418Z,99609.09
2023-03-11T20:09:18.675Z,99614.48
2023-03-11T20:13:01.106Z,99619.81
2023-03-11T20:16:17.377Z,99621.71
2023-03-11T20:19:25.308Z,99620.48
2023-03-11T20:22:53.373Z,99621.78
2023-03-11T20:26:21.556Z,99628.89
2023-03-11T20:29:50.124Z,99638.06
2023-03-11T20:33:19.753Z,99646.15
2023-03-11T20:36:32.817Z,99647.14
2023-03-11T20:40:01.277Z,99652.35
2023-03-11T20:43:29.701Z,99656.07
2023-03-11T20:46:58.119Z,99659.20
2023-03-11T20:50:08.725Z,99667.96
2023-03-11T20:53:47.233Z,99663.17
2023-03-11T20:57:16.634Z,99659.92
2023-03-11T21:00:46.326Z,99666.86
2023-03-11T21:03:48.138Z,99673.59
2023-03-11T21:07:16.262Z,99692.91
2023-03-11T21:10:44.003Z,99691.48
2023-03-11T21:14:12.912Z,99687.29
2023-03-11T21:17:41.069Z,99691.08
2023-03-11T21:21:09.301Z,99691.40
2023-03-11T21:24:37.528Z,99691.99
2023-03-11T21:28:05.813Z,99697.17
2023-03-11T21:31:30.038Z,99699.02
2023-03-11T21:34:57.820Z,99698.95
2023-03-11T21:38:26.296Z,99699.36
2023-03-11T21:41:54.722Z,99704.77
2023-03-11T21:45:22.906Z,99710.04
2023-03-11T21:48:51.431Z,99718.61
2023-03-11T21:52:19.068Z,99714.73
2023-03-11T21:55:43.582Z,99714.89
2023-03-11T21:59:11.685Z,99712.98
2023-03-11T22:02:40.215Z,99716.05
2023-03-11T22:06:04.620Z,99721.16
2023-03-11T22:12:58.105Z,99728.92
2023-03-11T22:16:26.922Z,99732.75
2023-03-11T22:19:33.070Z,99735.96
2023-03-11T22:23:00.938Z,99739.61
2023-03-11T22:26:25.018Z,99739.31
2023-03-11T22:36:44.174Z,99748.11
2023-03-11T22:43:42.400Z,99756.04
2023-03-11T22:47:10.985Z,99760.33
2023-03-11T22:54:09.466Z,99766.48
2023-03-11T22:57:18.210Z,99766.88
2023-03-11T23:00:49.177Z,99758.86
2023-03-11T23:04:17.390Z,99764.08
2023-03-11T23:07:26.036Z,99765.31
2023-03-11T23:10:55.246Z,99767.02
2023-03-11T23:14:30.695Z,99769.20
2023-03-11T23:17:32.333Z,99776.90
2023-03-11T23:20:40.360Z,99777.80
2023-03-11T23:24:08.734Z,99777.60
2023-03-11T23:27:36.842Z,99782.90
2023-03-11T23:31:05.150Z,99794.92
2023-03-11T23:34:33.416Z,99809.52
2023-03-11T23:38:02.644Z,99816.54
2023-03-11T23:41:30.753Z,99816.63
2023-03-11T23:44:47.145Z,99816.75
2023-03-11T23:48:15.364Z,99820.62
2023-03-11T23:51:43.760Z,99821.05
2023-03-11T23:55:12.149Z,99812.47
2023-03-11T23:58:21.344Z,99809.27
